sensor_id;sensor_type;location;lat;lon;timestamp;temperature;humidity
4556;DHT22;2290;48.674;9.018;2023-04-10T00:01:06;7.20;99.90
4556;DHT22;2290;48.674;9.018;2023-04-10T00:03:32;7.10;99.90
4556;DHT22;2290;48.674;9.018;2023-04-10T00:05:58;7.10;99.90
4556;DHT22;2290;48.674;9.018;2023-04-10T00:08:24;7.00;99.90
4556;DHT22;2290;48.674;9.018;2023-04-10T00:10:51;7.00;99.90
4556;DHT22;2290;48.674;9.018;2023-04-10T00:13:19;6.90;99.90
4556;DHT22;2290;48.674;9.018;2023-04-10T00:15:44;6.90;99.90
4556;DHT22;2290;48.674;9.018;2023-04-10T00:18:11;6.90;99.90
4556;DHT22;2290;48.674;9.018;2023-04-10T00:20:36;6.80;99.90
4556;DHT22;2290;48.674;9.018;2023-04-10T00:23:03;6.80;99.90
4556;DHT22;2290;48.674;9.018;2023-04-10T00:25:29;6.80;99.90
4556;DHT22;2290;48.674;9.018;2023-04-10T00:27:59;6.70;99.90
4556;DHT22;2290;48.674;9.018;2023-04-10T00:30:27;6.80;99.90
4556;DHT22;2290;48.674;9.018;2023-04-10T00:32:53;6.70;99.90
4556;DHT22;2290;48.674;9.018;2023-04-10T00:35:21;6.70;99.90
4556;DHT22;2290;48.674;9.018;2023-04-10T00:37:46;6.70;99.90
4556;DHT22;2290;48.674;9.018;2023-04-10T00:40:14;6.60;99.90
4556;DHT22;2290;48.674;9.018;2023-04-10T00:42:40;6.50;99.90
4556;DHT22;2290;48.674;9.018;2023-04-10T00:45:06;6.50;99.90
4556;DHT22;2290;48.674;9.018;2023-04-10T00:47:33;6.40;99.90
4556;DHT22;2290;48.674;9.018;2023-04-10T00:49:59;6.40;99.90
4556;DHT22;2290;48.674;9.018;2023-04-10T00:52:25;6.30;99.90
4556;DHT22;2290;48.674;9.018;2023-04-10T00:54:52;6.30;99.90
4556;DHT22;2290;48.674;9.018;2023-04-10T00:57:17;6.40;99.90
4556;DHT22;2290;48.674;9.018;2023-04-10T00:59:44;6.40;99.90
4556;DHT22;2290;48.674;9.018;2023-04-10T01:02:10;6.30;99.90
4556;DHT22;2290;48.674;9.018;2023-04-10T01:04:38;6.20;99.90
4556;DHT22;2290;48.674;9.018;2023-04-10T01:13:33;5.80;99.90
4556;DHT22;2290;48.674;9.018;2023-04-10T01:16:24;5.70;99.90
4556;DHT22;2290;48.674;9.018;2023-04-10T01:21:46;5.80;99.90
4556;DHT22;2290;48.674;9.018;2023-04-10T01:29:46;5.70;99.90
4556;DHT22;2290;48.674;9.018;2023-04-10T01:32:19;5.60;99.90
4556;DHT22;2290;48.674;9.018;2023-04-10T01:34:49;5.40;99.90
4556;DHT22;2290;48.674;9.018;2023-04-10T01:37:23;5.30;99.90
4556;DHT22;2290;48.674;9.018;2023-04-10T01:39:56;5.30;99.90
4556;DHT22;2290;48.674;9.018;2023-04-10T01:42:27;5.20;99.90
4556;DHT22;2290;48.674;9.018;2023-04-10T01:44:53;5.20;99.90
4556;DHT22;2290;48.674;9.018;2023-04-10T01:47:20;5.10;99.90
4556;DHT22;2290;48.674;9.018;2023-04-10T01:49:48;5.10;99.90
4556;DHT22;2290;48.674;9.018;2023-04-10T01:52:15;5.20;99.90
4556;DHT22;2290;48.674;9.018;2023-04-10T01:54:42;5.20;99.90
4556;DHT22;2290;48.674;9.018;2023-04-10T01:57:09;5.10;99.90
4556;DHT22;2290;48.674;9.018;2023-04-10T01:59:38;5.10;99.90
4556;DHT22;2290;48.674;9.018;2023-04-10T02:02:04;5.20;99.90
4556;DHT22;2290;48.674;9.018;2023-04-10T02:04:32;5.30;99.90
4556;DHT22;2290;48.674;9.018;2023-04-10T02:09:46;5.30;99.90
4556;DHT22;2290;48.674;9.018;2023-04-10T02:12:20;5.20;99.90
4556;DHT22;2290;48.674;9.018;2023-04-10T02:14:48;5.30;99.90
4556;DHT22;2290;48.674;9.018;2023-04-10T02:17:20;5.20;99.90
4556;DHT22;2290;48.674;9.018;2023-04-10T02:19:48;5.20;99.90
4556;DHT22;2290;48.674;9.018;2023-04-10T02:22:16;5.10;99.90
4556;DHT22;2290;48.674;9.018;2023-04-10T02:24:42;5.10;99.90
4556;DHT22;2290;48.674;9.018;2023-04-10T02:27:09;5.00;99.90
4556;DHT22;2290;48.674;9.018;2023-04-10T02:29:36;4.80;99.90
4556;DHT22;2290;48.674;9.018;2023-04-10T02:32:02;4.80;99.90
4556;DHT22;2290;48.674;9.018;2023-04-10T02:34:27;4.90;99.90
4556;DHT22;2290;48.674;9.018;2023-04-10T02:36:55;4.80;99.90
4556;DHT22;2290;48.674;9.018;2023-04-10T02:39:20;4.80;99.90
4556;DHT22;2290;48.674;9.018;2023-04-10T02:41:47;4.70;99.90
4556;DHT22;2290;48.674;9.018;2023-04-10T02:44:13;4.60;99.90
4556;DHT22;2290;48.674;9.018;2023-04-10T02:46:39;4.50;99.90
4556;DHT22;2290;48.674;9.018;2023-04-10T02:49:07;4.50;99.90
4556;DHT22;2290;48.674;9.018;2023-04-10T02:51:35;4.50;99.90
4556;DHT22;2290;48.674;9.018;2023-04-10T02:54:01;4.50;99.90
4556;DHT22;2290;48.674;9.018;2023-04-10T02:56:33;4.50;99.90
4556;DHT22;2290;48.674;9.018;2023-04-10T02:59:02;4.60;99.90
4556;DHT22;2290;48.674;9.018;2023-04-10T03:01:29;4.60;99.90
4556;DHT22;2290;48.674;9.018;2023-04-10T03:03:55;4.70;99.90
4556;DHT22;2290;48.674;9.018;2023-04-10T03:06:22;4.70;99.90
4556;DHT22;2290;48.674;9.018;2023-04-10T03:08:50;4.80;99.90
4556;DHT22;2290;48.674;9.018;2023-04-10T03:11:16;4.80;99.90
4556;DHT22;2290;48.674;9.018;2023-04-10T03:13:41;4.80;99.90
4556;DHT22;2290;48.674;9.018;2023-04-10T03:16:07;4.60;99.90
4556;DHT22;2290;48.674;9.018;2023-04-10T03:18:32;4.50;99.90
4556;DHT22;2290;48.674;9.018;2023-04-10T03:21:00;4.50;99.90
4556;DHT22;2290;48.674;9.018;2023-04-10T03:23:26;4.50;99.90
4556;DHT22;2290;48.674;9.018;2023-04-10T03:25:52;4.60;99.90
4556;DHT22;2290;48.674;9.018;2023-04-10T03:28:20;4.50;99.90
4556;DHT22;2290;48.674;9.018;2023-04-10T03:30:50;4.50;99.90
4556;DHT22;2290;48.674;9.018;2023-04-10T03:33:16;4.60;99.90
4556;DHT22;2290;48.674;9.018;2023-04-10T03:35:44;4.50;99.90
4556;DHT22;2290;48.674;9.018;2023-04-10T03:38:10;4.50;99.90
4556;DHT22;2290;48.674;9.018;2023-04-10T03:40:37;4.50;99.90
4556;DHT22;2290;48.674;9.018;2023-04-10T03:43:04;4.50;99.90
4556;DHT22;2290;48.674;9.018;2023-04-10T03:45:30;4.40;99.90
4556;DHT22;2290;48.674;9.018;2023-04-10T03:47:58;4.30;99.90
4556;DHT22;2290;48.674;9.018;2023-04-10T03:50:23;4.30;99.90
4556;DHT22;2290;48.674;9.018;2023-04-10T03:52:49;4.40;99.90
4556;DHT22;2290;48.674;9.018;2023-04-10T03:55:16;4.30;99.90
4556;DHT22;2290;48.674;9.018;2023-04-10T03:57:44;4.20;99.90
4556;DHT22;2290;48.674;9.018;2023-04-10T04:00:11;4.20;99.90
4556;DHT22;2290;48.674;9.018;2023-04-10T04:02:38;4.10;99.90
4556;DHT22;2290;48.674;9.018;2023-04-10T04:05:04;4.20;99.90
4556;DHT22;2290;48.674;9.018;2023-04-10T04:07:31;4.10;99.90
4556;DHT22;2290;48.674;9.018;2023-04-10T04:09:56;4.10;99.90
4556;DHT22;2290;48.674;9.018;2023-04-10T04:12:23;4.10;99.90
4556;DHT22;2290;48.674;9.018;2023-04-10T04:14:51;4.20;99.90
4556;DHT22;2290;48.674;9.018;2023-04-10T04:17:17;4.30;99.90
4556;DHT22;2290;48.674;9.018;2023-04-10T04:19:42;4.50;99.90
4556;DHT22;2290;48.674;9.018;2023-04-10T04:22:08;4.40;99.90
4556;DHT22;2290;48.674;9.018;2023-04-10T04:24:34;4.40;99.90
4556;DHT22;2290;48.674;9.018;2023-04-10T04:26:59;4.30;99.90
4556;DHT22;2290;48.674;9.018;2023-04-10T04:29:27;4.20;99.90
4556;DHT22;2290;48.674;9.018;2023-04-10T04:31:52;4.20;99.90
4556;DHT22;2290;48.674;9.018;2023-04-10T04:34:19;4.30;99.90
4556;DHT22;2290;48.674;9.018;2023-04-10T04:36:45;4.30;99.90
4556;DHT22;2290;48.674;9.018;2023-04-10T04:39:10;4.20;99.90
4556;DHT22;2290;48.674;9.018;2023-04-10T04:41:36;4.10;99.90
4556;DHT22;2290;48.674;9.018;2023-04-10T04:44:04;4.10;99.90
4556;DHT22;2290;48.674;9.018;2023-04-10T04:46:30;4.10;99.90
4556;DHT22;2290;48.674;9.018;2023-04-10T04:48:55;4.20;99.90
4556;DHT22;2290;48.674;9.018;2023-04-10T04:51:21;4.10;99.90
4556;DHT22;2290;48.674;9.018;2023-04-10T04:53:47;4.00;99.90
4556;DHT22;2290;48.674;9.018;2023-04-10T04:56:13;4.20;99.90
4556;DHT22;2290;48.674;9.018;2023-04-10T04:58:39;4.30;99.90
4556;DHT22;2290;48.674;9.018;2023-04-10T05:01:06;4.20;99.90
4556;DHT22;2290;48.674;9.018;2023-04-10T05:03:33;4.20;99.90
4556;DHT22;2290;48.674;9.018;2023-04-10T05:05:58;4.20;99.90
4556;DHT22;2290;48.674;9.018;2023-04-10T05:08:25;4.30;99.90
4556;DHT22;2290;48.674;9.018;2023-04-10T05:10:51;4.40;99.90
4556;DHT22;2290;48.674;9.018;2023-04-10T05:13:17;4.50;99.90
4556;DHT22;2290;48.674;9.018;2023-04-10T05:15:44;4.50;99.90
4556;DHT22;2290;48.674;9.018;2023-04-10T05:18:10;4.70;99.90
4556;DHT22;2290;48.674;9.018;2023-04-10T05:20:38;4.80;99.90
4556;DHT22;2290;48.674;9.018;2023-04-10T05:23:04;4.90;99.90
4556;DHT22;2290;48.674;9.018;2023-04-10T05:25:29;5.00;99.90
4556;DHT22;2290;48.674;9.018;2023-04-10T05:27:55;5.10;99.90
4556;DHT22;2290;48.674;9.018;2023-04-10T05:30:21;5.00;99.90
4556;DHT22;2290;48.674;9.018;2023-04-10T05:32:47;5.10;99.90
4556;DHT22;2290;48.674;9.018;2023-04-10T05:35:13;5.20;99.90
4556;DHT22;2290;48.674;9.018;2023-04-10T05:37:38;5.20;99.90
4556;DHT22;2290;48.674;9.018;2023-04-10T05:40:05;5.30;99.90
4556;DHT22;2290;48.674;9.018;2023-04-10T05:42:31;5.50;99.90
4556;DHT22;2290;48.674;9.018;2023-04-10T05:44:57;5.60;99.90
4556;DHT22;2290;48.674;9.018;2023-04-10T05:47:24;5.70;99.90
4556;DHT22;2290;48.674;9.018;2023-04-10T05:49:49;5.70;99.90
4556;DHT22;2290;48.674;9.018;2023-04-10T05:52:15;5.70;99.90
4556;DHT22;2290;48.674;9.018;2023-04-10T05:54:40;5.70;99.90
4556;DHT22;2290;48.674;9.018;2023-04-10T05:57:08;5.80;99.90
4556;DHT22;2290;48.674;9.018;2023-04-10T05:59:33;5.80;99.90
4556;DHT22;2290;48.674;9.018;2023-04-10T06:01:59;5.80;99.90
4556;DHT22;2290;48.674;9.018;2023-04-10T06:04:26;5.70;99.90
4556;DHT22;2290;48.674;9.018;2023-04-10T06:06:51;5.70;99.90
4556;DHT22;2290;48.674;9.018;2023-04-10T06:09:17;5.80;99.90
4556;DHT22;2290;48.674;9.018;2023-04-10T06:11:42;5.90;99.90
4556;DHT22;2290;48.674;9.018;2023-04-10T06:14:08;6.00;99.90
4556;DHT22;2290;48.674;9.018;2023-04-10T06:16:37;6.10;99.90
4556;DHT22;2290;48.674;9.018;2023-04-10T06:19:02;6.20;99.90
4556;DHT22;2290;48.674;9.018;2023-04-10T06:21:28;6.20;99.90
4556;DHT22;2290;48.674;9.018;2023-04-10T06:23:53;6.40;99.90
4556;DHT22;2290;48.674;9.018;2023-04-10T06:26:19;6.40;99.90
4556;DHT22;2290;48.674;9.018;2023-04-10T06:28:45;6.40;99.90
4556;DHT22;2290;48.674;9.018;2023-04-10T06:31:12;6.40;99.90
4556;DHT22;2290;48.674;9.018;2023-04-10T06:33:38;6.40;99.90
4556;DHT22;2290;48.674;9.018;2023-04-10T06:36:03;6.40;99.90
4556;DHT22;2290;48.674;9.018;2023-04-10T06:38:29;6.40;99.90
4556;DHT22;2290;48.674;9.018;2023-04-10T06:40:55;6.50;99.90
4556;DHT22;2290;48.674;9.018;2023-04-10T06:43:21;6.60;99.90
4556;DHT22;2290;48.674;9.018;2023-04-10T06:45:46;6.70;99.90
4556;DHT22;2290;48.674;9.018;2023-04-10T06:48:13;6.80;99.90
4556;DHT22;2290;48.674;9.018;2023-04-10T06:50:39;6.90;99.90
4556;DHT22;2290;48.674;9.018;2023-04-10T06:53:05;7.00;99.90
4556;DHT22;2290;48.674;9.018;2023-04-10T06:55:30;7.10;99.90
4556;DHT22;2290;48.674;9.018;2023-04-10T06:57:56;7.20;99.90
4556;DHT22;2290;48.674;9.018;2023-04-10T07:00:22;7.40;99.90
4556;DHT22;2290;48.674;9.018;2023-04-10T07:02:48;7.50;99.90
4556;DHT22;2290;48.674;9.018;2023-04-10T07:05:14;7.60;99.90
4556;DHT22;2290;48.674;9.018;2023-04-10T07:07:40;7.70;99.90
4556;DHT22;2290;48.674;9.018;2023-04-10T07:10:06;7.80;99.90
4556;DHT22;2290;48.674;9.018;2023-04-10T07:12:32;8.00;99.90
4556;DHT22;2290;48.674;9.018;2023-04-10T07:14:58;8.20;99.90
4556;DHT22;2290;48.674;9.018;2023-04-10T07:17:24;8.30;99.90
4556;DHT22;2290;48.674;9.018;2023-04-10T07:19:49;8.50;99.90
4556;DHT22;2290;48.674;9.018;2023-04-10T07:22:15;8.70;99.90
4556;DHT22;2290;48.674;9.018;2023-04-10T07:24:41;8.80;99.90
4556;DHT22;2290;48.674;9.018;2023-04-10T07:27:07;8.90;99.90
4556;DHT22;2290;48.674;9.018;2023-04-10T07:29:32;8.90;99.90
4556;DHT22;2290;48.674;9.018;2023-04-10T07:31:58;9.10;99.90
4556;DHT22;2290;48.674;9.018;2023-04-10T07:34:24;9.20;99.90
4556;DHT22;2290;48.674;9.018;2023-04-10T07:36:50;9.30;99.90
4556;DHT22;2290;48.674;9.018;2023-04-10T07:39:16;9.30;99.90
4556;DHT22;2290;48.674;9.018;2023-04-10T07:41:42;9.40;99.90
4556;DHT22;2290;48.674;9.018;2023-04-10T07:44:08;9.50;99.90
4556;DHT22;2290;48.674;9.018;2023-04-10T07:46:33;9.60;99.90
4556;DHT22;2290;48.674;9.018;2023-04-10T07:49:01;9.60;99.90
4556;DHT22;2290;48.674;9.018;2023-04-10T07:51:26;9.70;99.90
4556;DHT22;2290;48.674;9.018;2023-04-10T07:53:53;9.70;99.90
4556;DHT22;2290;48.674;9.018;2023-04-10T07:56:19;9.80;99.90
4556;DHT22;2290;48.674;9.018;2023-04-10T07:58:45;9.90;99.90
4556;DHT22;2290;48.674;9.018;2023-04-10T08:01:11;10.00;99.20
4556;DHT22;2290;48.674;9.018;2023-04-10T08:03:41;10.10;99.30
4556;DHT22;2290;48.674;9.018;2023-04-10T08:06:10;10.20;99.10
4556;DHT22;2290;48.674;9.018;2023-04-10T08:08:38;10.30;98.80
4556;DHT22;2290;48.674;9.018;2023-04-10T08:11:27;10.40;98.40
4556;DHT22;2290;48.674;9.018;2023-04-10T08:13:56;10.50;98.70
4556;DHT22;2290;48.674;9.018;2023-04-10T08:16:30;10.60;98.90
4556;DHT22;2290;48.674;9.018;2023-04-10T08:18:56;10.60;99.00
4556;DHT22;2290;48.674;9.018;2023-04-10T08:21:26;10.70;99.00
4556;DHT22;2290;48.674;9.018;2023-04-10T08:23:57;10.80;98.80
4556;DHT22;2290;48.674;9.018;2023-04-10T08:26:25;10.90;98.70
4556;DHT22;2290;48.674;9.018;2023-04-10T08:28:55;10.90;98.10
4556;DHT22;2290;48.674;9.018;2023-04-10T08:31:23;11.00;98.40
4556;DHT22;2290;48.674;9.018;2023-04-10T08:33:49;11.10;98.20
4556;DHT22;2290;48.674;9.018;2023-04-10T08:36:15;11.10;98.40
4556;DHT22;2290;48.674;9.018;2023-04-10T08:38:41;11.20;98.50
4556;DHT22;2290;48.674;9.018;2023-04-10T08:41:15;11.40;97.80
4556;DHT22;2290;48.674;9.018;2023-04-10T08:43:42;11.40;97.60
4556;DHT22;2290;48.674;9.018;2023-04-10T08:46:09;11.50;97.90
4556;DHT22;2290;48.674;9.018;2023-04-10T08:51:03;11.70;97.30
4556;DHT22;2290;48.674;9.018;2023-04-10T08:53:30;11.80;97.10
4556;DHT22;2290;48.674;9.018;2023-04-10T08:55:56;11.90;97.00
4556;DHT22;2290;48.674;9.018;2023-04-10T08:58:23;12.20;97.10
4556;DHT22;2290;48.674;9.018;2023-04-10T09:00:50;12.30;96.00
4556;DHT22;2290;48.674;9.018;2023-04-10T09:03:16;12.40;95.50
4556;DHT22;2290;48.674;9.018;2023-04-10T09:05:43;12.60;95.30
4556;DHT22;2290;48.674;9.018;2023-04-10T09:08:10;12.60;94.50
4556;DHT22;2290;48.674;9.018;2023-04-10T09:10:36;12.70;93.60
4556;DHT22;2290;48.674;9.018;2023-04-10T09:13:02;12.70;93.40
4556;DHT22;2290;48.674;9.018;2023-04-10T09:15:27;12.80;93.80
4556;DHT22;2290;48.674;9.018;2023-04-10T09:17:57;12.80;93.30
4556;DHT22;2290;48.674;9.018;2023-04-10T09:20:25;12.90;92.80
4556;DHT22;2290;48.674;9.018;2023-04-10T09:22:52;13.10;93.10
4556;DHT22;2290;48.674;9.018;2023-04-10T09:25:32;13.20;92.60
4556;DHT22;2290;48.674;9.018;2023-04-10T09:28:01;13.30;93.10
4556;DHT22;2290;48.674;9.018;2023-04-10T09:30:38;13.50;92.80
4556;DHT22;2290;48.674;9.018;2023-04-10T09:33:22;13.60;93.40
4556;DHT22;2290;48.674;9.018;2023-04-10T09:35:49;13.80;93.00
4556;DHT22;2290;48.674;9.018;2023-04-10T09:38:19;14.00;93.20
4556;DHT22;2290;48.674;9.018;2023-04-10T09:40:47;14.10;93.30
4556;DHT22;2290;48.674;9.018;2023-04-10T09:43:24;14.20;92.30
4556;DHT22;2290;48.674;9.018;2023-04-10T09:45:54;14.40;91.90
4556;DHT22;2290;48.674;9.018;2023-04-10T09:48:22;14.60;91.90
4556;DHT22;2290;48.674;9.018;2023-04-10T09:50:49;14.60;90.80
4556;DHT22;2290;48.674;9.018;2023-04-10T09:53:19;14.80;91.00
4556;DHT22;2290;48.674;9.018;2023-04-10T09:55:47;14.80;91.10
4556;DHT22;2290;48.674;9.018;2023-04-10T09:58:13;14.90;90.70
4556;DHT22;2290;48.674;9.018;2023-04-10T10:00:40;15.00;90.90
4556;DHT22;2290;48.674;9.018;2023-04-10T10:03:10;15.20;91.00
4556;DHT22;2290;48.674;9.018;2023-04-10T10:05:40;15.40;90.10
4556;DHT22;2290;48.674;9.018;2023-04-10T10:08:09;15.50;90.00
4556;DHT22;2290;48.674;9.018;2023-04-10T10:10:39;15.70;88.80
4556;DHT22;2290;48.674;9.018;2023-04-10T10:13:07;15.70;88.10
4556;DHT22;2290;48.674;9.018;2023-04-10T10:16:45;15.80;89.20
4556;DHT22;2290;48.674;9.018;2023-04-10T10:18:50;16.00;90.20
4556;DHT22;2290;48.674;9.018;2023-04-10T10:21:18;16.20;88.00
4556;DHT22;2290;48.674;9.018;2023-04-10T10:23:46;16.20;87.00
4556;DHT22;2290;48.674;9.018;2023-04-10T10:26:13;16.40;85.60
4556;DHT22;2290;48.674;9.018;2023-04-10T10:28:40;16.60;86.50
4556;DHT22;2290;48.674;9.018;2023-04-10T10:31:06;16.60;86.30
4556;DHT22;2290;48.674;9.018;2023-04-10T10:33:36;16.70;86.00
4556;DHT22;2290;48.674;9.018;2023-04-10T10:36:02;16.80;83.10
4556;DHT22;2290;48.674;9.018;2023-04-10T10:38:31;16.90;80.70
4556;DHT22;2290;48.674;9.018;2023-04-10T10:41:15;16.90;76.70
4556;DHT22;2290;48.674;9.018;2023-04-10T10:46:46;17.10;74.60
4556;DHT22;2290;48.674;9.018;2023-04-10T10:49:13;17.00;73.30
4556;DHT22;2290;48.674;9.018;2023-04-10T10:51:47;16.90;73.70
4556;DHT22;2290;48.674;9.018;2023-04-10T10:54:33;16.90;73.30
4556;DHT22;2290;48.674;9.018;2023-04-10T10:57:00;16.80;72.80
4556;DHT22;2290;48.674;9.018;2023-04-10T11:02:14;16.80;71.70
4556;DHT22;2290;48.674;9.018;2023-04-10T11:04:42;16.90;72.80
4556;DHT22;2290;48.674;9.018;2023-04-10T11:07:09;17.00;73.00
4556;DHT22;2290;48.674;9.018;2023-04-10T11:09:50;17.20;71.90
4556;DHT22;2290;48.674;9.018;2023-04-10T11:12:22;17.50;69.20
4556;DHT22;2290;48.674;9.018;2023-04-10T11:15:03;17.70;71.60
4556;DHT22;2290;48.674;9.018;2023-04-10T11:17:48;17.80;69.50
4556;DHT22;2290;48.674;9.018;2023-04-10T11:20:19;18.00;67.80
4556;DHT22;2290;48.674;9.018;2023-04-10T11:23:12;18.10;66.80
4556;DHT22;2290;48.674;9.018;2023-04-10T11:25:51;18.10;68.40
4556;DHT22;2290;48.674;9.018;2023-04-10T11:28:37;18.30;71.10
4556;DHT22;2290;48.674;9.018;2023-04-10T11:31:20;18.20;64.20
4556;DHT22;2290;48.674;9.018;2023-04-10T11:34:04;18.30;68.40
4556;DHT22;2290;48.674;9.018;2023-04-10T11:36:31;18.40;69.10
4556;DHT22;2290;48.674;9.018;2023-04-10T11:38:58;18.40;67.90
4556;DHT22;2290;48.674;9.018;2023-04-10T11:41:29;18.50;67.60
4556;DHT22;2290;48.674;9.018;2023-04-10T11:43:56;18.60;63.60
4556;DHT22;2290;48.674;9.018;2023-04-10T11:46:22;18.60;61.60
4556;DHT22;2290;48.674;9.018;2023-04-10T11:48:57;18.70;59.70
4556;DHT22;2290;48.674;9.018;2023-04-10T11:51:22;18.70;58.80
4556;DHT22;2290;48.674;9.018;2023-04-10T11:56:32;18.80;58.00
4556;DHT22;2290;48.674;9.018;2023-04-10T11:58:58;18.90;59.20
4556;DHT22;2290;48.674;9.018;2023-04-10T12:01:24;19.10;59.30
4556;DHT22;2290;48.674;9.018;2023-04-10T12:03:50;19.10;57.10
4556;DHT22;2290;48.674;9.018;2023-04-10T12:06:18;19.20;58.70
4556;DHT22;2290;48.674;9.018;2023-04-10T12:08:45;19.40;59.00
4556;DHT22;2290;48.674;9.018;2023-04-10T12:11:22;19.40;56.50
4556;DHT22;2290;48.674;9.018;2023-04-10T12:13:56;19.60;55.60
4556;DHT22;2290;48.674;9.018;2023-04-10T12:16:24;19.70;56.10
4556;DHT22;2290;48.674;9.018;2023-04-10T12:18:53;19.70;54.80
4556;DHT22;2290;48.674;9.018;2023-04-10T12:21:19;19.70;55.90
4556;DHT22;2290;48.674;9.018;2023-04-10T12:23:44;19.70;55.40
4556;DHT22;2290;48.674;9.018;2023-04-10T12:26:17;19.40;53.00
4556;DHT22;2290;48.674;9.018;2023-04-10T12:28:54;19.50;54.50
4556;DHT22;2290;48.674;9.018;2023-04-10T12:31:26;19.60;54.90
4556;DHT22;2290;48.674;9.018;2023-04-10T12:33:52;19.70;54.20
4556;DHT22;2290;48.674;9.018;2023-04-10T12:36:22;19.90;55.90
4556;DHT22;2290;48.674;9.018;2023-04-10T12:38:48;20.10;53.70
4556;DHT22;2290;48.674;9.018;2023-04-10T12:41:20;20.10;53.30
4556;DHT22;2290;48.674;9.018;2023-04-10T12:43:49;20.20;54.30
4556;DHT22;2290;48.674;9.018;2023-04-10T12:46:24;20.20;54.70
4556;DHT22;2290;48.674;9.018;2023-04-10T12:48:50;20.00;51.20
4556;DHT22;2290;48.674;9.018;2023-04-10T12:51:15;19.60;51.80
4556;DHT22;2290;48.674;9.018;2023-04-10T12:53:45;19.50;50.20
4556;DHT22;2290;48.674;9.018;2023-04-10T12:56:11;19.40;51.20
4556;DHT22;2290;48.674;9.018;2023-04-10T12:58:38;19.40;52.90
4556;DHT22;2290;48.674;9.018;2023-04-10T13:01:06;19.40;51.90
4556;DHT22;2290;48.674;9.018;2023-04-10T13:03:33;19.40;52.10
4556;DHT22;2290;48.674;9.018;2023-04-10T13:06:02;19.40;52.00
4556;DHT22;2290;48.674;9.018;2023-04-10T13:08:29;19.50;53.40
4556;DHT22;2290;48.674;9.018;2023-04-10T13:10:58;19.70;53.40
4556;DHT22;2290;48.674;9.018;2023-04-10T13:13:28;19.80;53.90
4556;DHT22;2290;48.674;9.018;2023-04-10T13:15:56;19.90;53.10
4556;DHT22;2290;48.674;9.018;2023-04-10T13:18:22;19.80;51.50
4556;DHT22;2290;48.674;9.018;2023-04-10T13:20:48;19.80;52.60
4556;DHT22;2290;48.674;9.018;2023-04-10T13:23:14;20.10;52.30
4556;DHT22;2290;48.674;9.018;2023-04-10T13:25:40;20.10;52.00
4556;DHT22;2290;48.674;9.018;2023-04-10T13:28:07;20.10;50.50
4556;DHT22;2290;48.674;9.018;2023-04-10T13:30:39;20.40;52.40
4556;DHT22;2290;48.674;9.018;2023-04-10T13:33:05;20.60;52.30
4556;DHT22;2290;48.674;9.018;2023-04-10T13:35:31;20.80;52.10
4556;DHT22;2290;48.674;9.018;2023-04-10T13:37:58;21.10;53.00
4556;DHT22;2290;48.674;9.018;2023-04-10T13:40:23;20.90;51.30
4556;DHT22;2290;48.674;9.018;2023-04-10T13:42:49;20.70;51.00
4556;DHT22;2290;48.674;9.018;2023-04-10T13:45:16;20.40;49.60
4556;DHT22;2290;48.674;9.018;2023-04-10T13:47:42;19.50;50.80
4556;DHT22;2290;48.674;9.018;2023-04-10T13:50:08;19.20;50.60
4556;DHT22;2290;48.674;9.018;2023-04-10T13:52:34;19.20;51.20
4556;DHT22;2290;48.674;9.018;2023-04-10T13:54:59;19.10;52.10
4556;DHT22;2290;48.674;9.018;2023-04-10T13:57:25;19.20;51.50
4556;DHT22;2290;48.674;9.018;2023-04-10T13:59:51;19.30;50.90
4556;DHT22;2290;48.674;9.018;2023-04-10T14:02:18;19.10;50.00
4556;DHT22;2290;48.674;9.018;2023-04-10T14:04:45;18.80;50.20
4556;DHT22;2290;48.674;9.018;2023-04-10T14:07:11;18.80;51.80
4556;DHT22;2290;48.674;9.018;2023-04-10T14:09:37;18.70;51.40
4556;DHT22;2290;48.674;9.018;2023-04-10T14:12:03;18.70;51.90
4556;DHT22;2290;48.674;9.018;2023-04-10T14:14:30;18.90;50.80
4556;DHT22;2290;48.674;9.018;2023-04-10T14:16:56;19.00;51.10
4556;DHT22;2290;48.674;9.018;2023-04-10T14:19:21;19.00;51.30
4556;DHT22;2290;48.674;9.018;2023-04-10T14:21:49;19.10;50.80
4556;DHT22;2290;48.674;9.018;2023-04-10T14:24:16;19.20;51.80
4556;DHT22;2290;48.674;9.018;2023-04-10T14:26:43;19.10;52.70
4556;DHT22;2290;48.674;9.018;2023-04-10T14:29:09;19.20;49.70
4556;DHT22;2290;48.674;9.018;2023-04-10T14:31:38;19.20;50.90
4556;DHT22;2290;48.674;9.018;2023-04-10T14:34:04;19.30;50.10
4556;DHT22;2290;48.674;9.018;2023-04-10T14:36:31;19.40;50.20
4556;DHT22;2290;48.674;9.018;2023-04-10T14:38:56;19.60;50.50
4556;DHT22;2290;48.674;9.018;2023-04-10T14:41:22;19.70;50.50
4556;DHT22;2290;48.674;9.018;2023-04-10T14:43:47;19.90;50.10
4556;DHT22;2290;48.674;9.018;2023-04-10T14:46:14;19.80;51.20
4556;DHT22;2290;48.674;9.018;2023-04-10T14:48:41;19.50;48.50
4556;DHT22;2290;48.674;9.018;2023-04-10T14:51:07;19.50;50.60
4556;DHT22;2290;48.674;9.018;2023-04-10T14:53:37;19.70;51.90
4556;DHT22;2290;48.674;9.018;2023-04-10T14:56:14;19.60;51.30
4556;DHT22;2290;48.674;9.018;2023-04-10T14:58:40;19.80;52.10
4556;DHT22;2290;48.674;9.018;2023-04-10T15:01:11;19.90;51.70
4556;DHT22;2290;48.674;9.018;2023-04-10T15:03:38;19.90;52.10
4556;DHT22;2290;48.674;9.018;2023-04-10T15:06:06;20.00;50.80
4556;DHT22;2290;48.674;9.018;2023-04-10T15:08:32;20.10;51.70
4556;DHT22;2290;48.674;9.018;2023-04-10T15:10:57;20.10;51.70
4556;DHT22;2290;48.674;9.018;2023-04-10T15:13:23;20.10;52.30
4556;DHT22;2290;48.674;9.018;2023-04-10T15:15:48;20.30;52.20
4556;DHT22;2290;48.674;9.018;2023-04-10T15:18:16;20.40;52.10
4556;DHT22;2290;48.674;9.018;2023-04-10T15:20:42;20.50;52.20
4556;DHT22;2290;48.674;9.018;2023-04-10T15:23:09;20.50;51.70
4556;DHT22;2290;48.674;9.018;2023-04-10T15:25:37;20.40;52.40
4556;DHT22;2290;48.674;9.018;2023-04-10T15:28:03;20.20;52.80
4556;DHT22;2290;48.674;9.018;2023-04-10T15:30:29;20.00;51.10
4556;DHT22;2290;48.674;9.018;2023-04-10T15:32:56;19.70;51.50
4556;DHT22;2290;48.674;9.018;2023-04-10T15:35:23;19.50;52.60
4556;DHT22;2290;48.674;9.018;2023-04-10T15:37:52;19.40;52.70
4556;DHT22;2290;48.674;9.018;2023-04-10T15:40:19;19.30;53.30
4556;DHT22;2290;48.674;9.018;2023-04-10T15:42:46;19.10;53.20
4556;DHT22;2290;48.674;9.018;2023-04-10T15:45:13;19.10;53.80
4556;DHT22;2290;48.674;9.018;2023-04-10T15:47:40;18.90;53.70
4556;DHT22;2290;48.674;9.018;2023-04-10T15:50:05;18.80;53.80
4556;DHT22;2290;48.674;9.018;2023-04-10T15:52:31;18.60;53.70
4556;DHT22;2290;48.674;9.018;2023-04-10T15:54:59;18.50;52.60
4556;DHT22;2290;48.674;9.018;2023-04-10T15:57:24;18.20;53.00
4556;DHT22;2290;48.674;9.018;2023-04-10T15:59:52;18.10;52.80
4556;DHT22;2290;48.674;9.018;2023-04-10T16:02:18;17.80;51.40
4556;DHT22;2290;48.674;9.018;2023-04-10T16:04:43;17.70;52.20
4556;DHT22;2290;48.674;9.018;2023-04-10T16:07:09;17.60;53.90
4556;DHT22;2290;48.674;9.018;2023-04-10T16:09:34;17.60;54.40
4556;DHT22;2290;48.674;9.018;2023-04-10T16:12:00;17.50;52.60
4556;DHT22;2290;48.674;9.018;2023-04-10T16:14:26;17.40;53.10
4556;DHT22;2290;48.674;9.018;2023-04-10T16:16:52;17.30;52.40
4556;DHT22;2290;48.674;9.018;2023-04-10T16:19:17;17.20;53.20
4556;DHT22;2290;48.674;9.018;2023-04-10T16:21:43;17.10;52.50
4556;DHT22;2290;48.674;9.018;2023-04-10T16:24:08;17.10;53.40
4556;DHT22;2290;48.674;9.018;2023-04-10T16:26:34;17.00;53.40
4556;DHT22;2290;48.674;9.018;2023-04-10T16:28:59;17.00;53.60
4556;DHT22;2290;48.674;9.018;2023-04-10T16:31:25;17.00;54.30
4556;DHT22;2290;48.674;9.018;2023-04-10T16:33:51;16.90;53.30
4556;DHT22;2290;48.674;9.018;2023-04-10T16:36:17;16.90;54.00
4556;DHT22;2290;48.674;9.018;2023-04-10T16:38:43;16.90;54.30
4556;DHT22;2290;48.674;9.018;2023-04-10T16:41:09;16.90;54.20